createdAt,value
2019-02-27T00:02:24.307Z,7.30
2019-02-27T00:04:52.666Z,7.50
2019-02-27T00:07:21.502Z,7.50
2019-02-27T00:09:49.765Z,7.40
2019-02-27T00:12:19.342Z,7.30
2019-02-27T00:14:48.894Z,7.20
2019-02-27T00:17:18.099Z,7.20
2019-02-27T00:19:47.165Z,7.20
2019-02-27T00:22:17.636Z,7.20
2019-02-27T00:24:45.667Z,7.00
2019-02-27T00:27:14.799Z,6.90
2019-02-27T00:29:43.478Z,6.90
2019-02-27T00:32:11.787Z,6.60
2019-02-27T00:34:39.989Z,6.50
2019-02-27T00:37:09.461Z,6.30
2019-02-27T00:39:37.528Z,6.70
2019-02-27T00:42:05.626Z,6.70
2019-02-27T00:44:34.961Z,6.50
2019-02-27T00:47:03.040Z,6.40
2019-02-27T00:49:32.354Z,5.80
2019-02-27T00:52:01.045Z,5.80
2019-02-27T00:54:31.449Z,5.90
2019-02-27T00:57:08.000Z,5.80
2019-02-27T00:59:36.675Z,6.00
2019-02-27T01:02:04.997Z,6.10
2019-02-27T01:04:35.116Z,5.20
2019-02-27T01:07:04.230Z,5.30
2019-02-27T01:09:32.458Z,5.00
2019-02-27T01:12:00.912Z,5.00
2019-02-27T01:14:29.198Z,5.00
2019-02-27T01:16:57.355Z,4.90
2019-02-27T01:19:25.421Z,5.50
2019-02-27T01:21:53.461Z,5.70
2019-02-27T01:24:21.451Z,5.70
2019-02-27T01:26:49.596Z,5.80
2019-02-27T01:29:18.133Z,5.30
2019-02-27T01:31:47.386Z,5.50
2019-02-27T01:34:15.578Z,5.60
2019-02-27T01:36:44.666Z,5.40
2019-02-27T01:39:12.918Z,5.40
2019-02-27T01:41:41.112Z,5.50
2019-02-27T01:44:11.157Z,5.50
2019-02-27T01:46:39.387Z,5.10
2019-02-27T01:49:07.395Z,5.10
2019-02-27T01:51:35.386Z,4.90
2019-02-27T01:54:03.830Z,5.20
2019-02-27T01:56:32.010Z,5.70
2019-02-27T01:59:00.379Z,5.80
2019-02-27T02:01:30.288Z,5.80
2019-02-27T02:03:58.774Z,5.90
2019-02-27T02:06:26.755Z,5.70
2019-02-27T02:09:30.452Z,5.50
2019-02-27T02:11:58.858Z,5.30
2019-02-27T02:15:01.105Z,5.10
2019-02-27T02:18:41.392Z,5.10
2019-02-27T02:22:00.685Z,4.70
2019-02-27T02:25:34.146Z,4.40
2019-02-27T02:29:30.048Z,4.60
2019-02-27T02:32:57.095Z,4.90
2019-02-27T02:36:30.756Z,4.80
2019-02-27T02:39:35.971Z,5.00
2019-02-27T02:42:51.915Z,5.10
2019-02-27T02:45:39.340Z,5.30
2019-02-27T02:49:24.735Z,5.30
2019-02-27T02:52:44.347Z,5.10
2019-02-27T02:55:25.392Z,5.20
2019-02-27T02:58:37.492Z,5.40
2019-02-27T03:01:45.673Z,5.20
2019-02-27T03:05:01.132Z,5.20
2019-02-27T03:08:05.040Z,4.90
2019-02-27T03:11:36.335Z,4.80
2019-02-27T03:14:54.178Z,4.50
2019-02-27T03:18:15.334Z,4.00
2019-02-27T03:22:11.445Z,4.20
2019-02-27T03:25:55.670Z,3.10
2019-02-27T03:29:42.671Z,3.60
2019-02-27T03:32:43.197Z,4.10
2019-02-27T03:36:04.571Z,4.20
2019-02-27T03:39:48.345Z,4.30
2019-02-27T03:42:51.261Z,3.90
2019-02-27T03:45:36.857Z,3.50
2019-02-27T03:48:52.315Z,3.60
2019-02-27T03:52:20.660Z,3.60
2019-02-27T03:55:42.480Z,2.90
2019-02-27T03:58:33.389Z,3.10
2019-02-27T04:01:32.019Z,3.10
2019-02-27T04:04:51.123Z,3.50
2019-02-27T04:08:16.483Z,3.60
2019-02-27T04:10:44.633Z,3.80
2019-02-27T04:13:12.586Z,3.90
2019-02-27T04:15:40.656Z,4.00
2019-02-27T04:18:07.088Z,4.00
2019-02-27T04:20:35.111Z,3.90
2019-02-27T04:23:03.201Z,4.10
2019-02-27T04:25:32.275Z,4.10
2019-02-27T04:28:00.294Z,4.10
2019-02-27T04:30:28.296Z,3.80
2019-02-27T04:32:56.244Z,3.80
2019-02-27T04:35:24.165Z,3.70
2019-02-27T04:37:54.310Z,3.80
2019-02-27T04:40:22.107Z,3.80
2019-02-27T04:42:50.054Z,3.90
2019-02-27T04:45:18.175Z,4.00
2019-02-27T04:47:46.148Z,3.80
2019-02-27T04:50:14.290Z,3.60
2019-02-27T04:52:42.208Z,3.50
2019-02-27T04:55:10.211Z,3.70
2019-02-27T04:57:38.081Z,3.60
2019-02-27T05:00:06.994Z,3.60
2019-02-27T05:02:35.220Z,3.60
2019-02-27T05:05:06.193Z,3.60
2019-02-27T05:07:33.361Z,3.40
2019-02-27T05:10:01.384Z,3.70
2019-02-27T05:12:29.371Z,3.80
2019-02-27T05:14:57.363Z,3.70
2019-02-27T05:17:25.288Z,3.30
2019-02-27T05:19:53.246Z,3.60
2019-02-27T05:22:21.261Z,3.60
2019-02-27T05:24:49.320Z,3.60
2019-02-27T05:27:17.301Z,3.70
2019-02-27T05:29:45.162Z,3.50
2019-02-27T05:32:13.365Z,3.70
2019-02-27T05:34:41.299Z,3.50
2019-02-27T05:37:12.847Z,2.80
2019-02-27T05:39:40.751Z,2.90
2019-02-27T05:42:08.767Z,3.20
2019-02-27T05:44:36.664Z,3.20
2019-02-27T05:47:04.620Z,3.30
2019-02-27T05:49:32.572Z,3.10
2019-02-27T05:52:00.430Z,3.10
2019-02-27T05:54:30.020Z,3.00
2019-02-27T05:57:00.171Z,3.00
2019-02-27T05:59:29.460Z,2.90
2019-02-27T06:01:57.833Z,3.00
2019-02-27T06:04:25.894Z,3.00
2019-02-27T06:06:53.905Z,3.00
2019-02-27T06:09:22.022Z,3.30
2019-02-27T06:11:49.931Z,3.40
2019-02-27T06:14:21.167Z,3.40
2019-02-27T06:16:47.839Z,3.30
2019-02-27T06:19:15.965Z,2.60
2019-02-27T06:21:43.855Z,2.90
2019-02-27T06:24:12.819Z,3.00
2019-02-27T06:26:40.841Z,3.10
2019-02-27T06:29:08.705Z,3.30
2019-02-27T06:31:39.320Z,3.10
2019-02-27T06:34:06.879Z,2.90
2019-02-27T06:36:34.752Z,3.00
2019-02-27T06:39:03.460Z,3.10
2019-02-27T06:41:33.314Z,3.20
2019-02-27T06:44:01.490Z,3.20
2019-02-27T06:46:30.067Z,3.30
2019-02-27T06:48:58.143Z,3.10
2019-02-27T06:51:26.296Z,3.10
2019-02-27T06:53:54.434Z,3.40
2019-02-27T06:56:22.344Z,3.40
2019-02-27T06:58:50.744Z,3.40
2019-02-27T07:01:19.640Z,3.80
2019-02-27T07:03:47.637Z,3.90
2019-02-27T07:06:15.603Z,4.10
2019-02-27T07:08:43.605Z,4.10
2019-02-27T07:11:11.641Z,4.30
2019-02-27T07:13:39.834Z,4.30
2019-02-27T07:16:08.583Z,4.40
2019-02-27T07:18:41.763Z,4.30
2019-02-27T07:21:09.798Z,4.70
2019-02-27T07:23:37.968Z,5.10
2019-02-27T07:26:06.051Z,5.20
2019-02-27T07:28:34.280Z,5.40
2019-02-27T07:31:02.478Z,5.40
2019-02-27T07:33:30.651Z,5.20
2019-02-27T07:36:03.171Z,4.70
2019-02-27T07:38:29.356Z,4.90
2019-02-27T07:40:57.627Z,4.80
2019-02-27T07:43:25.617Z,5.30
2019-02-27T07:45:54.438Z,5.30
2019-02-27T07:48:22.529Z,5.90
2019-02-27T07:50:50.712Z,6.30
2019-02-27T07:53:18.674Z,6.10
2019-02-27T07:55:47.481Z,6.10
2019-02-27T07:58:15.880Z,6.20
2019-02-27T08:00:44.030Z,6.70
2019-02-27T08:03:13.124Z,6.90
2019-02-27T08:05:42.195Z,6.00
2019-02-27T08:08:11.133Z,6.70
2019-02-27T08:10:41.192Z,6.80
2019-02-27T08:13:11.818Z,6.80
2019-02-27T08:15:40.300Z,6.90
2019-02-27T08:18:09.632Z,6.90
2019-02-27T08:20:37.699Z,6.90
2019-02-27T08:23:06.961Z,7.10
2019-02-27T08:25:38.052Z,6.70
2019-02-27T08:28:06.349Z,7.20
2019-02-27T08:30:34.789Z,7.30
2019-02-27T08:33:03.201Z,7.00
2019-02-27T08:35:32.181Z,7.40
2019-02-27T08:38:02.745Z,7.60
2019-02-27T08:40:30.891Z,7.80
2019-02-27T08:42:58.955Z,8.40
2019-02-27T08:45:27.697Z,8.00
2019-02-27T08:47:55.950Z,8.00
2019-02-27T08:50:24.111Z,8.20
2019-02-27T08:52:52.319Z,8.00
2019-02-27T08:55:22.824Z,8.20
2019-02-27T08:57:55.879Z,8.00
2019-02-27T09:00:23.399Z,8.50
2019-02-27T09:02:52.039Z,8.20
2019-02-27T09:05:20.983Z,8.50
2019-02-27T09:07:50.028Z,9.00
2019-02-27T09:10:19.348Z,9.70
2019-02-27T09:12:49.080Z,9.60
2019-02-27T09:15:18.167Z,9.00
2019-02-27T09:17:46.278Z,9.40
2019-02-27T09:20:19.244Z,9.10
2019-02-27T09:22:48.369Z,10.50
2019-02-27T09:25:16.754Z,10.70
2019-02-27T09:27:44.968Z,10.60
2019-02-27T09:30:15.276Z,9.80
2019-02-27T09:32:46.070Z,10.90
2019-02-27T09:35:16.839Z,10.90
2019-02-27T09:37:48.306Z,10.60
2019-02-27T09:40:17.465Z,11.50
2019-02-27T09:42:46.148Z,11.30
2019-02-27T09:45:29.143Z,11.90
2019-02-27T09:47:59.974Z,10.80
2019-02-27T09:50:34.613Z,11.40
2019-02-27T09:53:04.433Z,11.80
2019-02-27T09:55:33.128Z,11.50
2019-02-27T09:58:02.329Z,12.40
2019-02-27T10:00:52.886Z,13.00
2019-02-27T10:03:21.619Z,13.20
2019-02-27T10:05:50.093Z,11.70
2019-02-27T10:08:20.464Z,12.40
2019-02-27T10:10:49.015Z,12.50
2019-02-27T10:13:17.717Z,12.90
2019-02-27T10:15:46.060Z,13.30
2019-02-27T10:18:18.325Z,12.80
2019-02-27T10:20:45.795Z,12.70
2019-02-27T10:23:14.473Z,13.50
2019-02-27T10:25:43.589Z,13.70
2019-02-27T10:28:12.349Z,13.30
2019-02-27T10:30:40.463Z,12.80
2019-02-27T10:33:11.165Z,12.30
2019-02-27T10:35:38.588Z,12.70
2019-02-27T10:38:07.772Z,12.70
2019-02-27T10:40:36.411Z,13.20
2019-02-27T10:43:04.797Z,13.40
2019-02-27T10:45:33.085Z,13.70
2019-02-27T10:48:01.176Z,13.90
2019-02-27T10:50:29.299Z,13.80
2019-02-27T10:52:57.286Z,14.40
2019-02-27T10:55:26.846Z,13.80
2019-02-27T10:57:55.185Z,14.90
2019-02-27T11:00:28.586Z,13.90
2019-02-27T11:02:56.592Z,13.90
2019-02-27T11:05:25.182Z,14.10
2019-02-27T11:07:54.254Z,14.60
2019-02-27T11:10:23.417Z,14.60
2019-02-27T11:12:51.526Z,14.80
2019-02-27T11:15:19.774Z,15.60
2019-02-27T11:17:49.230Z,15.40
2019-02-27T11:20:20.845Z,14.90
2019-02-27T11:22:47.526Z,15.00
2019-02-27T11:25:22.343Z,15.90
2019-02-27T11:27:47.435Z,15.90
2019-02-27T11:30:22.519Z,15.40
2019-02-27T11:32:51.260Z,16.00
2019-02-27T11:35:22.062Z,17.00
2019-02-27T11:37:50.350Z,17.50
2019-02-27T11:40:20.238Z,17.30
2019-02-27T11:42:48.217Z,17.70
2019-02-27T11:45:16.092Z,17.00
2019-02-27T11:47:47.711Z,17.30
2019-02-27T11:50:14.684Z,16.20
2019-02-27T11:52:48.845Z,16.40
2019-02-27T11:55:15.575Z,17.40
2019-02-27T11:57:43.542Z,16.50
2019-02-27T12:00:20.227Z,17.90
2019-02-27T12:02:46.472Z,18.50
2019-02-27T12:05:15.124Z,18.50
2019-02-27T12:07:43.277Z,19.00
2019-02-27T12:10:15.134Z,18.70
2019-02-27T12:12:43.275Z,18.00
2019-02-27T12:15:12.907Z,18.70
2019-02-27T12:17:41.720Z,19.20
2019-02-27T12:20:10.362Z,18.80
2019-02-27T12:22:38.376Z,18.50
2019-02-27T12:25:07.333Z,18.60
2019-02-27T12:27:48.712Z,18.50
2019-02-27T12:30:11.041Z,19.30
2019-02-27T12:32:39.056Z,19.10
2019-02-27T12:35:11.480Z,19.60
2019-02-27T12:37:39.508Z,19.30
2019-02-27T12:40:10.079Z,20.00
2019-02-27T12:42:42.530Z,20.30
2019-02-27T12:45:12.268Z,20.20
2019-02-27T12:47:40.694Z,19.30
2019-02-27T12:50:11.520Z,19.40
2019-02-27T12:52:44.390Z,20.20
2019-02-27T12:55:09.628Z,20.60
2019-02-27T12:57:37.653Z,20.70
2019-02-27T13:00:09.024Z,20.40
2019-02-27T13:02:37.241Z,20.50
2019-02-27T13:05:06.718Z,19.00
2019-02-27T13:07:34.848Z,20.00
2019-02-27T13:10:04.232Z,20.60
2019-02-27T13:12:32.190Z,20.00
2019-02-27T13:15:00.358Z,20.10
2019-02-27T13:17:28.593Z,20.70
2019-02-27T13:19:56.519Z,20.70
2019-02-27T13:22:26.317Z,20.90
2019-02-27T13:24:54.408Z,21.00
2019-02-27T13:27:22.344Z,20.90
2019-02-27T13:29:52.198Z,21.30
2019-02-27T13:32:20.320Z,19.80
2019-02-27T13:34:49.090Z,20.90
2019-02-27T13:37:18.684Z,21.20
2019-02-27T13:39:46.771Z,21.70
2019-02-27T13:42:18.392Z,22.00
2019-02-27T13:44:44.740Z,21.30
2019-02-27T13:47:12.705Z,21.20
2019-02-27T13:49:40.848Z,21.80
2019-02-27T13:52:12.455Z,22.20
2019-02-27T13:54:38.972Z,21.70
2019-02-27T13:57:06.879Z,21.80
2019-02-27T13:59:35.884Z,21.80
2019-02-27T14:02:04.901Z,21.40
2019-02-27T14:04:32.902Z,21.70
2019-02-27T14:07:00.958Z,22.00
2019-02-27T14:09:29.021Z,22.00
2019-02-27T14:11:58.737Z,22.00
2019-02-27T14:14:27.230Z,22.30
2019-02-27T14:16:55.239Z,21.40
2019-02-27T14:19:23.873Z,21.10
2019-02-27T14:21:52.569Z,22.00
2019-02-27T14:24:21.359Z,22.30
2019-02-27T14:26:49.374Z,22.30
2019-02-27T14:29:17.285Z,22.20
2019-02-27T14:31:45.279Z,21.50
2019-02-27T14:34:13.290Z,22.10
2019-02-27T14:36:42.492Z,22.50
2019-02-27T14:39:13.139Z,22.50
2019-02-27T14:41:41.177Z,22.20
2019-02-27T14:44:09.443Z,22.00
2019-02-27T14:46:37.403Z,21.40
2019-02-27T14:49:05.381Z,21.80
2019-02-27T14:51:33.465Z,22.10
2019-02-27T14:54:01.584Z,21.80
2019-02-27T14:56:29.696Z,22.20
2019-02-27T14:58:57.643Z,22.20
2019-02-27T15:01:26.988Z,21.90
2019-02-27T15:03:55.241Z,22.20
2019-02-27T15:06:23.181Z,22.00
2019-02-27T15:08:57.735Z,22.30
2019-02-27T15:11:21.159Z,22.60
2019-02-27T15:13:49.276Z,22.70
2019-02-27T15:16:17.370Z,22.70
2019-02-27T15:18:45.373Z,22.60
2019-02-27T15:21:13.812Z,22.60
2019-02-27T15:23:42.039Z,21.90
2019-02-27T15:26:13.888Z,22.50
2019-02-27T15:28:41.692Z,22.60
2019-02-27T15:31:09.765Z,23.90
2019-02-27T15:33:39.062Z,24.50
2019-02-27T15:36:08.294Z,24.80
2019-02-27T15:38:37.567Z,25.10
2019-02-27T15:41:05.891Z,26.00
2019-02-27T15:43:34.153Z,26.10
2019-02-27T15:46:02.304Z,25.70
2019-02-27T15:48:30.388Z,26.50
2019-02-27T15:50:58.577Z,28.00
2019-02-27T15:53:26.575Z,28.80
2019-02-27T15:55:54.620Z,27.40
2019-02-27T15:58:25.334Z,26.80
2019-02-27T16:00:53.428Z,26.30
2019-02-27T16:03:22.944Z,26.70
2019-02-27T16:05:51.020Z,26.80
2019-02-27T16:08:20.275Z,27.40
2019-02-27T16:10:54.762Z,27.40
2019-02-27T16:13:19.119Z,27.10
2019-02-27T16:15:48.475Z,25.80
2019-02-27T16:18:16.923Z,25.80
2019-02-27T16:20:47.109Z,24.70
2019-02-27T16:23:15.106Z,23.50
2019-02-27T16:25:43.370Z,22.10
2019-02-27T16:28:14.103Z,21.60
2019-02-27T16:30:43.099Z,21.20
2019-02-27T16:33:11.174Z,21.10
2019-02-27T16:35:41.996Z,21.00
2019-02-27T16:38:09.702Z,20.60
2019-02-27T16:40:38.398Z,20.30
2019-02-27T16:43:06.630Z,20.30
2019-02-27T16:45:37.022Z,20.20
2019-02-27T16:48:05.613Z,20.00
2019-02-27T16:50:35.223Z,19.90
2019-02-27T16:53:03.284Z,19.80
2019-02-27T16:55:35.711Z,19.50
2019-02-27T16:58:02.024Z,19.20
2019-02-27T17:00:30.503Z,19.00
2019-02-27T17:02:58.719Z,18.80
2019-02-27T17:05:27.054Z,18.50
2019-02-27T17:08:00.690Z,18.30
2019-02-27T17:10:29.570Z,18.00
2019-02-27T17:12:57.928Z,17.80
2019-02-27T17:15:25.995Z,17.50
2019-02-27T17:17:54.314Z,17.40
2019-02-27T17:20:24.081Z,17.20
2019-02-27T17:22:52.469Z,17.00
2019-02-27T17:25:20.729Z,16.70
2019-02-27T17:27:50.887Z,16.50
2019-02-27T17:30:24.525Z,16.00
2019-02-27T17:32:52.903Z,15.90
2019-02-27T17:35:23.575Z,15.80
2019-02-27T17:37:51.371Z,15.50
2019-02-27T17:40:19.372Z,15.10
2019-02-27T17:42:53.211Z,15.00
2019-02-27T17:45:18.427Z,14.90
2019-02-27T17:47:46.584Z,14.90
2019-02-27T17:50:15.182Z,14.80
2019-02-27T17:52:43.207Z,14.60
2019-02-27T17:55:12.910Z,14.50
2019-02-27T17:57:40.977Z,14.50
2019-02-27T18:00:16.011Z,14.30
2019-02-27T18:02:43.685Z,14.20
2019-02-27T18:05:11.997Z,14.00
2019-02-27T18:07:40.251Z,13.80
2019-02-27T18:10:10.058Z,13.70
2019-02-27T18:12:38.330Z,13.50
2019-02-27T18:15:08.558Z,13.50
2019-02-27T18:17:36.904Z,13.40
2019-02-27T18:20:05.722Z,13.30
2019-02-27T18:22:34.046Z,13.30
2019-02-27T18:25:04.756Z,13.30
2019-02-27T18:27:32.186Z,13.30
2019-02-27T18:30:00.473Z,13.20
2019-02-27T18:32:28.728Z,13.30
2019-02-27T18:34:56.742Z,13.20
2019-02-27T18:37:24.905Z,13.20
2019-02-27T18:39:53.266Z,13.20
2019-02-27T18:42:21.387Z,13.20
2019-02-27T18:44:50.098Z,13.00
2019-02-27T18:47:18.124Z,13.00
2019-02-27T18:49:46.239Z,13.00
2019-02-27T18:52:21.404Z,13.10
2019-02-27T18:54:46.281Z,13.20
2019-02-27T18:57:14.477Z,13.20
2019-02-27T18:59:42.626Z,13.00
2019-02-27T19:02:10.716Z,12.90
2019-02-27T19:04:38.908Z,12.90
2019-02-27T19:07:08.030Z,12.80
2019-02-27T19:09:36.277Z,12.90
2019-02-27T19:12:04.772Z,12.80
2019-02-27T19:14:33.220Z,12.70
2019-02-27T19:17:01.486Z,12.60
2019-02-27T19:19:29.757Z,12.30
2019-02-27T19:21:58.097Z,12.00
2019-02-27T19:24:27.523Z,11.80
2019-02-27T19:26:56.005Z,11.60
2019-02-27T19:29:24.049Z,11.50
2019-02-27T19:31:52.242Z,11.30
2019-02-27T19:34:21.367Z,11.20
2019-02-27T19:36:49.610Z,11.10
2019-02-27T19:39:18.334Z,11.00
2019-02-27T19:41:48.121Z,10.90
2019-02-27T19:44:16.360Z,10.80
2019-02-27T19:46:47.453Z,10.60
2019-02-27T19:49:15.125Z,10.50
2019-02-27T19:51:45.089Z,10.50
2019-02-27T19:54:14.854Z,10.70
2019-02-27T19:56:43.480Z,10.70
2019-02-27T19:59:11.525Z,10.70
2019-02-27T20:01:46.257Z,10.60
2019-02-27T20:04:12.780Z,10.50
2019-02-27T20:06:42.149Z,10.30
2019-02-27T20:09:10.526Z,10.30
2019-02-27T20:11:41.033Z,10.40
2019-02-27T20:14:11.777Z,10.30
2019-02-27T20:16:41.202Z,10.30
2019-02-27T20:19:09.568Z,10.30
2019-02-27T20:21:44.111Z,10.20
2019-02-27T20:24:14.463Z,10.30
2019-02-27T20:26:44.534Z,10.20
2019-02-27T20:29:13.514Z,10.30
2019-02-27T20:31:41.664Z,10.20
2019-02-27T20:34:11.577Z,10.20
2019-02-27T20:36:40.998Z,10.20
2019-02-27T20:39:10.088Z,10.20
2019-02-27T20:41:43.907Z,10.00
2019-02-27T20:44:13.978Z,10.00
2019-02-27T20:46:42.081Z,9.80
2019-02-27T20:49:14.031Z,9.60
2019-02-27T20:51:43.443Z,9.50
2019-02-27T20:54:11.914Z,9.30
2019-02-27T20:56:40.818Z,9.10
2019-02-27T20:59:12.258Z,9.00
2019-02-27T21:01:46.681Z,8.70
2019-02-27T21:04:11.710Z,8.40
2019-02-27T21:06:40.785Z,8.50
2019-02-27T21:09:11.782Z,8.40
2019-02-27T21:11:40.099Z,8.20
2019-02-27T21:14:09.197Z,8.60
2019-02-27T21:16:40.196Z,8.40
2019-02-27T21:19:09.751Z,7.70
2019-02-27T21:21:38.338Z,7.60
2019-02-27T21:24:06.762Z,8.10
2019-02-27T21:26:38.000Z,7.80
2019-02-27T21:29:08.614Z,8.30
2019-02-27T21:31:36.496Z,8.40
2019-02-27T21:34:04.934Z,8.70
2019-02-27T21:36:36.245Z,8.70
2019-02-27T21:39:04.786Z,8.80
2019-02-27T21:41:34.865Z,9.00
2019-02-27T21:44:06.497Z,9.10
2019-02-27T21:46:34.715Z,9.10
2019-02-27T21:49:02.961Z,9.10
2019-02-27T21:51:31.650Z,9.10
2019-02-27T21:54:00.357Z,9.10
2019-02-27T21:56:30.189Z,9.00
2019-02-27T21:58:58.664Z,8.90
2019-02-27T22:01:26.791Z,8.90
2019-02-27T22:03:55.206Z,8.80
2019-02-27T22:06:24.745Z,8.60
2019-02-27T22:08:53.287Z,8.50
2019-02-27T22:11:24.209Z,8.30
2019-02-27T22:13:52.017Z,8.20
2019-02-27T22:16:20.131Z,7.80
2019-02-27T22:18:48.159Z,7.60
2019-02-27T22:21:17.276Z,7.00
2019-02-27T22:23:45.997Z,7.40
2019-02-27T22:26:14.423Z,7.80
2019-02-27T22:28:42.581Z,7.90
2019-02-27T22:31:10.810Z,8.00
2019-02-27T22:33:38.882Z,7.80
2019-02-27T22:36:12.355Z,7.40
2019-02-27T22:38:36.975Z,7.50
2019-02-27T22:41:05.142Z,7.70
2019-02-27T22:43:35.155Z,7.50
2019-02-27T22:46:03.321Z,7.70
2019-02-27T22:48:32.356Z,7.90
2019-02-27T22:51:00.534Z,7.90
2019-02-27T22:53:28.915Z,7.80
2019-02-27T22:55:57.826Z,7.80
2019-02-27T22:58:27.432Z,7.80
2019-02-27T23:01:10.174Z,7.90
2019-02-27T23:03:59.861Z,7.80
2019-02-27T23:06:28.071Z,7.70
2019-02-27T23:09:00.160Z,7.70
2019-02-27T23:11:28.479Z,7.60
2019-02-27T23:13:56.621Z,7.30
2019-02-27T23:16:24.547Z,7.30
2019-02-27T23:18:52.693Z,7.40
2019-02-27T23:21:20.785Z,7.30
2019-02-27T23:23:48.931Z,7.30
2019-02-27T23:26:19.818Z,7.20
2019-02-27T23:28:48.859Z,7.30
2019-02-27T23:31:22.384Z,7.20
2019-02-27T23:33:48.259Z,7.40
2019-02-27T23:36:16.468Z,7.20
2019-02-27T23:38:45.256Z,7.30
2019-02-27T23:41:14.250Z,7.30
2019-02-27T23:43:42.168Z,7.20
2019-02-27T23:46:10.273Z,7.00
2019-02-27T23:48:41.569Z,7.10
2019-02-27T23:51:09.569Z,7.00
2019-02-27T23:53:37.594Z,7.00
2019-02-27T23:56:05.669Z,6.80
2019-02-27T23:58:35.626Z,6.60
